Time;durP1;ratioP1;P1;durP2;ratioP2;P2;SDS_P1;SDS_P2;PMS_P1;PMS_P2;Temp;Humidity;BMP_temperature;BMP_pressure;BME280_temperature;BME280_humidity;BME280_pressure;Samples;Min_cycle;Max_cycle;Signal;HPM_P1;HPM_P2
2022/04/20 00:00:49;;;;;;;11.80;9.10;;;25.30;78.70;;;;;;1885937;76;21086;-81
2022/04/20 00:03:20;;;;;;;12.40;9.20;;;25.30;79.50;;;;;;1883841;76;21106;-81
2022/04/20 00:05:51;;;;;;;10.63;7.72;;;25.30;78.90;;;;;;1869072;76;21113;-81
2022/04/20 00:08:22;;;;;;;10.78;7.97;;;25.30;79.70;;;;;;1854662;77;21548;-82
2022/04/20 00:10:53;;;;;;;11.63;7.62;;;25.30;78.80;;;;;;1874432;76;21086;-82
2022/04/20 00:13:24;;;;;;;12.15;7.75;;;25.30;78.90;;;;;;1883760;76;21086;-82
2022/04/20 00:15:55;;;;;;;9.83;7.05;;;25.40;78.70;;;;;;1867522;76;21110;-82
2022/04/20 00:18:28;;;;;;;10.65;7.42;;;25.50;78.60;;;;;;1871199;76;21138;-82
2022/04/20 00:20:59;;;;;;;11.05;7.33;;;25.50;78.20;;;;;;1876034;75;21133;-82
2022/04/20 00:23:31;;;;;;;9.65;7.58;;;25.50;78.30;;;;;;1886174;75;21126;-83
2022/04/20 00:26:02;;;;;;;12.73;7.67;;;25.50;78.30;;;;;;1884591;76;21487;-82
2022/04/20 00:28:33;;;;;;;13.05;7.97;;;25.40;78.20;;;;;;1886396;76;21098;-82
2022/04/20 00:31:04;;;;;;;9.08;7.30;;;25.50;78.40;;;;;;1883960;76;21137;-82
2022/04/20 00:33:39;;;;;;;9.00;6.85;;;25.50;78.60;;;;;;1885766;75;21169;-82
2022/04/20 00:36:10;;;;;;;12.37;7.75;;;25.50;78.40;;;;;;1879643;76;21062;-82
2022/04/20 00:38:42;;;;;;;11.90;7.30;;;25.60;78.60;;;;;;1898173;74;21095;-82
2022/04/20 00:41:16;;;;;;;11.15;7.33;;;25.70;78.30;;;;;;1926467;73;21216;-82
2022/04/20 00:43:52;;;;;;;9.25;7.17;;;25.80;78.10;;;;;;1863117;75;21163;-81
2022/04/20 00:46:25;;;;;;;10.55;6.45;;;25.80;77.70;;;;;;1858868;76;21139;-80
2022/04/20 00:49:01;;;;;;;12.90;7.25;;;25.90;77.80;;;;;;1835036;78;21353;-82
2022/04/20 00:51:32;;;;;;;9.08;6.12;;;25.90;77.80;;;;;;1827753;77;21157;-82
2022/04/20 00:54:03;;;;;;;9.95;7.35;;;26.00;77.60;;;;;;1813922;77;21063;-82
2022/04/20 00:56:34;;;;;;;10.75;7.10;;;26.00;77.20;;;;;;1877650;75;21591;-82
2022/04/20 00:59:07;;;;;;;11.25;6.53;;;26.00;76.70;;;;;;1867656;76;21162;-83
2022/04/20 01:01:38;;;;;;;8.13;5.35;;;26.10;76.50;;;;;;1875498;76;21151;-82
2022/04/20 01:04:09;;;;;;;8.58;6.30;;;26.10;76.40;;;;;;1851570;77;21467;-82
2022/04/20 01:06:40;;;;;;;8.48;5.83;;;26.20;76.20;;;;;;1861963;77;21135;-82
2022/04/20 01:09:11;;;;;;;9.15;5.90;;;26.20;76.90;;;;;;1861994;77;21185;-82
2022/04/20 01:11:43;;;;;;;12.43;6.65;;;26.20;75.90;;;;;;1895999;75;21146;-81
2022/04/20 01:14:14;;;;;;;10.58;7.10;;;26.20;75.80;;;;;;1880088;76;21138;-82
2022/04/20 01:16:49;;;;;;;13.95;7.80;;;26.30;75.60;;;;;;1875170;76;21106;-82
2022/04/20 01:19:30;;;;;;;7.97;6.00;;;26.30;76.00;;;;;;1873313;76;21152;-81
2022/04/20 01:22:04;;;;;;;9.38;5.72;;;26.40;76.30;;;;;;1848015;77;21156;-81
2022/04/20 01:24:37;;;;;;;8.65;5.65;;;26.50;75.00;;;;;;1873299;76;21142;-82
2022/04/20 01:27:09;;;;;;;6.67;5.15;;;26.50;74.80;;;;;;1874871;75;21091;-80
2022/04/20 01:29:43;;;;;;;7.37;5.80;;;26.50;75.40;;;;;;1859700;76;21080;-81
2022/04/20 01:32:14;;;;;;;10.55;6.70;;;26.60;75.30;;;;;;1868452;76;21137;-81
2022/04/20 01:34:45;;;;;;;9.28;6.12;;;26.60;75.50;;;;;;1866329;76;21160;-81
2022/04/20 01:37:19;;;;;;;8.98;6.22;;;26.70;75.80;;;;;;1872205;76;21133;-82
2022/04/20 01:39:49;;;;;;;10.40;5.97;;;26.70;75.70;;;;;;1872740;76;21249;-81
2022/04/20 01:42:21;;;;;;;8.35;5.80;;;26.80;76.30;;;;;;1888618;75;21088;-81
2022/04/20 01:45:00;;;;;;;10.15;5.97;;;26.80;75.30;;;;;;1871716;76;21507;-82
2022/04/20 01:47:30;;;;;;;6.40;5.15;;;26.90;74.80;;;;;;1862642;76;21179;-81
2022/04/20 01:50:01;;;;;;;6.53;4.85;;;26.90;74.40;;;;;;1894049;75;21061;-82
2022/04/20 01:52:32;;;;;;;7.53;5.75;;;26.90;75.00;;;;;;1944524;73;21045;-81
2022/04/20 01:55:05;;;;;;;8.20;5.78;;;27.00;74.10;;;;;;1923418;73;21088;-81
2022/04/20 01:57:36;;;;;;;10.13;5.87;;;27.00;73.90;;;;;;1930651;72;21070;-81
2022/04/20 02:00:08;;;;;;;7.58;6.05;;;27.10;74.00;;;;;;1934759;74;21237;-81
2022/04/20 02:02:42;;;;;;;15.78;5.60;;;27.10;73.70;;;;;;1922751;74;21108;-82
2022/04/20 02:05:15;;;;;;;7.53;5.35;;;27.20;73.70;;;;;;1944549;72;21138;-82
2022/04/20 02:07:49;;;;;;;10.50;5.37;;;27.30;73.00;;;;;;1947765;73;21046;-82
2022/04/20 02:10:21;;;;;;;8.23;5.42;;;27.40;72.60;;;;;;1940668;73;21178;-81
2022/04/20 02:12:52;;;;;;;8.40;5.10;;;27.50;72.00;;;;;;1928871;74;21088;-81
2022/04/20 02:15:23;;;;;;;9.40;5.53;;;27.60;72.30;;;;;;1913417;74;21140;-83
2022/04/20 02:17:54;;;;;;;9.65;5.40;;;27.70;72.00;;;;;;1912005;74;21598;-80
2022/04/20 02:20:25;;;;;;;7.25;5.42;;;27.70;70.80;;;;;;1932189;74;21232;-82
2022/04/20 02:23:00;;;;;;;7.70;5.42;;;27.80;71.20;;;;;;1929845;74;21076;-81
2022/04/20 02:25:37;;;;;;;11.77;5.87;;;27.90;70.30;;;;;;1898163;74;21122;-82
2022/04/20 02:28:07;;;;;;;9.15;5.80;;;28.00;70.20;;;;;;1849957;77;21366;-81
2022/04/20 02:30:38;;;;;;;6.67;5.40;;;28.00;70.60;;;;;;1912492;74;21179;-82
2022/04/20 02:33:11;;;;;;;9.38;5.90;;;28.10;70.30;;;;;;1923052;74;21262;-80
2022/04/20 02:35:45;;;;;;;9.73;5.85;;;28.20;70.10;;;;;;1925604;72;21085;-81
2022/04/20 02:38:17;;;;;;;8.30;5.30;;;28.30;69.70;;;;;;1938102;72;21049;-80
2022/04/20 02:40:50;;;;;;;11.10;6.10;;;28.40;68.60;;;;;;1925839;72;21175;-82
2022/04/20 02:43:21;;;;;;;8.23;5.60;;;28.50;68.20;;;;;;1961479;72;21049;-82
2022/04/20 02:45:51;;;;;;;7.42;4.87;;;28.60;68.40;;;;;;1943093;73;21062;-82
2022/04/20 02:48:23;;;;;;;9.65;5.70;;;28.60;68.10;;;;;;1914079;72;21159;-82
2022/04/20 02:50:57;;;;;;;8.90;5.72;;;28.70;68.10;;;;;;1932338;74;21090;-82
2022/04/20 02:53:28;;;;;;;9.78;5.42;;;28.80;68.10;;;;;;1933883;72;21082;-83
2022/04/20 02:55:59;;;;;;;7.53;4.95;;;28.90;67.90;;;;;;1941511;72;21140;-82
2022/04/20 02:58:30;;;;;;;8.50;5.03;;;29.10;68.10;;;;;;1932324;72;21182;-83
2022/04/20 03:01:01;;;;;;;6.95;5.30;;;29.10;66.10;;;;;;1913363;74;21038;-82
2022/04/20 03:03:34;;;;;;;8.30;5.58;;;29.20;67.00;;;;;;1930895;74;21123;-83
2022/04/20 03:06:05;;;;;;;8.13;4.83;;;29.30;67.90;;;;;;1924309;74;21110;-83
2022/04/20 03:08:36;;;;;;;7.05;4.30;;;29.40;66.70;;;;;;1914147;73;21098;-83
2022/04/20 03:11:08;;;;;;;6.50;4.83;;;29.50;66.00;;;;;;1856358;76;21082;-82
2022/04/20 03:13:39;;;;;;;8.30;4.58;;;29.60;65.60;;;;;;1831453;75;21145;-82
2022/04/20 03:16:11;;;;;;;11.45;4.50;;;29.70;65.60;;;;;;1846927;77;21115;-82
2022/04/20 03:18:43;;;;;;;7.22;4.72;;;29.80;65.00;;;;;;1872899;75;21621;-82
2022/04/20 03:21:16;;;;;;;8.10;4.33;;;29.90;64.10;;;;;;1877612;75;21223;-82
2022/04/20 03:23:47;;;;;;;6.30;4.50;;;30.00;64.00;;;;;;1846171;77;21146;-83
2022/04/20 03:26:18;;;;;;;6.62;4.28;;;30.10;63.80;;;;;;1869952;76;21193;-82
2022/04/20 03:28:49;;;;;;;6.90;4.72;;;30.20;63.70;;;;;;1861425;77;21143;-82
2022/04/20 03:31:20;;;;;;;8.33;4.72;;;30.30;63.90;;;;;;1858455;76;21142;-82
2022/04/20 03:33:51;;;;;;;7.53;4.70;;;30.50;63.80;;;;;;1873004;76;21124;-82
2022/04/20 03:36:22;;;;;;;8.73;4.55;;;30.60;63.20;;;;;;1871440;76;21166;-81
2022/04/20 03:38:57;;;;;;;6.42;4.25;;;30.60;62.80;;;;;;1823871;78;21583;-82
2022/04/20 03:41:34;;;;;;;6.42;4.53;;;30.70;62.90;;;;;;1871735;76;21185;-81
2022/04/20 03:44:05;;;;;;;7.40;4.45;;;30.90;62.60;;;;;;1893197;76;21092;-82
2022/04/20 03:46:40;;;;;;;7.37;4.55;;;30.90;62.40;;;;;;1885562;76;21135;-82
2022/04/20 03:49:11;;;;;;;7.80;4.55;;;30.90;62.30;;;;;;1867532;76;21176;-82
2022/04/20 03:51:45;;;;;;;7.45;4.37;;;30.90;62.10;;;;;;1850296;76;21138;-82
2022/04/20 03:54:15;;;;;;;7.37;4.58;;;31.00;62.20;;;;;;1860172;77;21201;-81
2022/04/20 03:59:19;;;;;;;6.10;4.50;;;31.20;61.50;;;;;;1830887;78;21151;-81
2022/04/20 04:01:51;;;;;;;6.72;4.78;;;31.20;61.40;;;;;;1933512;74;21132;-81
2022/04/20 04:04:24;;;;;;;6.47;4.72;;;31.20;61.80;;;;;;1938577;72;21116;-81
2022/04/20 04:06:55;;;;;;;8.03;4.60;;;31.20;61.10;;;;;;1925669;72;21148;-81
2022/04/20 04:09:26;;;;;;;7.15;4.53;;;31.20;61.60;;;;;;1901350;75;21086;-81
2022/04/20 04:11:57;;;;;;;8.88;4.12;;;31.20;60.80;;;;;;1907719;74;21101;-80
2022/04/20 04:14:28;;;;;;;6.78;4.55;;;31.30;61.60;;;;;;1877586;76;21144;-80
2022/04/20 04:17:00;;;;;;;7.30;4.70;;;31.40;62.60;;;;;;1809910;78;21108;-82
2022/04/20 04:19:31;;;;;;;8.23;4.87;;;31.40;61.30;;;;;;1832989;78;21083;-79
2022/04/20 04:22:03;;;;;;;6.33;4.30;;;31.50;60.50;;;;;;1837916;78;21099;-80
2022/04/20 04:24:37;;;;;;;7.80;4.00;;;31.50;60.30;;;;;;1872244;76;21133;-80
2022/04/20 04:27:09;;;;;;;7.15;4.60;;;31.50;60.50;;;;;;1858117;76;21110;-81
2022/04/20 04:29:43;;;;;;;10.68;4.40;;;31.50;60.30;;;;;;1858028;76;21088;-82
2022/04/20 04:32:14;;;;;;;8.05;4.62;;;31.60;59.80;;;;;;1874045;76;21233;-82
2022/04/20 04:34:45;;;;;;;6.65;4.60;;;31.70;59.60;;;;;;1870521;76;21158;-82
2022/04/20 04:37:19;;;;;;;7.53;4.80;;;31.70;59.70;;;;;;1850107;76;21128;-82
2022/04/20 04:39:50;;;;;;;11.83;4.85;;;31.70;59.40;;;;;;1867652;76;21500;-82
2022/04/20 04:42:21;;;;;;;8.78;5.12;;;31.80;59.90;;;;;;1868611;76;21088;-83
2022/04/20 04:44:52;;;;;;;8.60;4.83;;;31.80;59.20;;;;;;1855759;76;21150;-83
2022/04/20 04:49:57;;;;;;;6.12;4.65;;;32.00;58.90;;;;;;1864076;76;21072;-82
2022/04/20 04:52:29;;;;;;;8.65;4.65;;;32.00;59.60;;;;;;1862961;76;21205;-82
2022/04/20 04:55:03;;;;;;;10.98;5.05;;;32.10;58.90;;;;;;1875388;76;21141;-82
2022/04/20 04:57:34;;;;;;;7.42;4.85;;;32.20;58.90;;;;;;1875701;76;21087;-81
2022/04/20 05:00:06;;;;;;;8.48;5.10;;;32.30;58.90;;;;;;1874221;76;21088;-81
2022/04/20 05:02:40;;;;;;;8.18;5.20;;;32.30;59.20;;;;;;1846239;76;21153;-82
2022/04/20 05:05:21;;;;;;;7.80;4.72;;;32.30;57.70;;;;;;1845785;78;21095;-82
2022/04/20 05:07:47;;;;;;;9.90;5.00;;;32.40;57.90;;;;;;1848570;76;21139;-82
2022/04/20 05:10:45;;;;;;;9.18;4.90;;;32.40;58.80;;;;;;1827169;77;21078;-80
2022/04/20 05:13:16;;;;;;;7.83;5.05;;;32.40;59.00;;;;;;1871756;76;21139;-81
2022/04/20 05:15:48;;;;;;;9.23;5.50;;;32.50;59.70;;;;;;1851019;76;21090;-81
2022/04/20 05:18:21;;;;;;;6.28;5.12;;;32.50;58.50;;;;;;1870504;77;21625;-82
2022/04/20 05:20:53;;;;;;;7.87;5.47;;;32.60;58.60;;;;;;1855425;76;21104;-83
2022/04/20 05:23:25;;;;;;;7.30;4.67;;;32.60;57.70;;;;;;1864328;75;21158;-83
2022/04/20 05:25:56;;;;;;;8.13;4.70;;;32.70;57.50;;;;;;1863003;76;21158;-82
2022/04/20 05:28:27;;;;;;;11.38;5.40;;;32.80;58.80;;;;;;1882957;76;21091;-82
2022/04/20 05:31:03;;;;;;;6.90;5.30;;;32.80;57.40;;;;;;1879511;74;21059;-82
2022/04/20 05:33:34;;;;;;;8.48;5.87;;;32.80;57.50;;;;;;1810005;79;21107;-82
2022/04/20 05:36:05;;;;;;;10.58;5.35;;;32.80;57.70;;;;;;1843496;77;21094;-84
2022/04/20 05:43:43;;;;;;;8.65;5.42;;;32.80;57.40;;;;;;1838271;78;21103;-82
2022/04/20 05:46:16;;;;;;;9.60;5.40;;;32.90;57.60;;;;;;1845216;77;21141;-82
2022/04/20 05:48:49;;;;;;;10.40;5.67;;;32.90;57.50;;;;;;1847944;76;21154;-82
2022/04/20 05:51:22;;;;;;;7.45;5.15;;;32.90;56.70;;;;;;1842425;77;21130;-82
2022/04/20 05:53:56;;;;;;;;;;;32.90;57.00;;;;;;1844782;75;21095;-82
2022/04/20 05:56:30;;;;;;;9.55;6.15;;;32.90;58.20;;;;;;1839822;78;20186;-82
2022/04/20 05:59:03;;;;;;;7.90;5.22;;;33.00;55.70;;;;;;1853606;77;21123;-82
2022/04/20 06:01:36;;;;;;;8.93;5.58;;;32.90;57.10;;;;;;1861135;75;21081;-81
2022/04/20 06:04:07;;;;;;;8.90;5.80;;;32.90;56.00;;;;;;1865864;77;21134;-81
2022/04/20 06:06:38;;;;;;;8.43;5.60;;;32.90;56.20;;;;;;1829250;77;21099;-83
2022/04/20 06:09:09;;;;;;;7.87;5.97;;;32.80;56.30;;;;;;1868329;76;21097;-83
2022/04/20 06:11:42;;;;;;;11.38;6.00;;;32.80;57.30;;;;;;1856032;77;21540;-82
2022/04/20 06:14:13;;;;;;;11.40;5.80;;;32.90;56.60;;;;;;1904322;74;21141;-82
2022/04/20 06:16:45;;;;;;;12.80;6.05;;;32.90;56.80;;;;;;1906201;75;21093;-81
2022/04/20 06:19:16;;;;;;;8.13;6.05;;;32.90;56.90;;;;;;1931835;74;21143;-82
2022/04/20 06:21:50;;;;;;;10.60;6.03;;;32.90;57.00;;;;;;1918486;74;21090;-81
2022/04/20 06:24:21;;;;;;;8.18;6.00;;;33.00;57.10;;;;;;1911775;74;21188;-81
2022/04/20 06:26:52;;;;;;;8.00;5.72;;;33.00;57.30;;;;;;1939587;74;21183;-83
2022/04/20 06:29:23;;;;;;;8.23;5.90;;;33.10;57.30;;;;;;1917173;72;21567;-82
2022/04/20 06:31:54;;;;;;;7.83;5.20;;;33.20;56.60;;;;;;1907335;74;21093;-82
2022/04/20 06:34:25;;;;;;;8.10;5.50;;;33.10;57.20;;;;;;1932260;74;21140;-82
2022/04/20 06:36:56;;;;;;;8.38;6.00;;;33.00;56.70;;;;;;1939853;74;21078;-81
2022/04/20 06:39:27;;;;;;;11.15;6.28;;;33.00;57.50;;;;;;1937661;74;21139;-82
2022/04/20 06:41:58;;;;;;;11.57;5.95;;;33.00;57.30;;;;;;1907687;74;21081;-82
2022/04/20 06:44:29;;;;;;;9.10;5.67;;;33.00;56.70;;;;;;1903845;74;21062;-82
2022/04/20 06:47:00;;;;;;;7.30;5.25;;;33.00;56.50;;;;;;1887892;76;21264;-82
2022/04/20 06:49:30;;;;;;;8.60;5.65;;;33.10;56.00;;;;;;1940272;72;21173;-81
2022/04/20 06:59:42;;;;;;;7.95;5.10;;;33.10;56.10;;;;;;1899275;74;21066;-83
2022/04/20 07:02:15;;;;;;;8.70;5.00;;;33.10;56.30;;;;;;1937120;72;21486;-83
2022/04/20 07:04:46;;;;;;;6.75;5.33;;;33.10;56.30;;;;;;1934437;73;21170;-81
2022/04/20 07:07:17;;;;;;;8.85;5.85;;;33.10;56.20;;;;;;1941590;74;21179;-81
2022/04/20 07:09:49;;;;;;;13.30;5.67;;;33.20;55.90;;;;;;1940536;74;21105;-81
2022/04/20 07:12:21;;;;;;;14.55;5.72;;;33.10;55.50;;;;;;1939612;74;21060;-80
2022/04/20 07:14:53;;;;;;;9.03;5.53;;;33.10;56.00;;;;;;1924840;72;21136;-81
2022/04/20 07:17:25;;;;;;;8.33;5.25;;;33.20;56.10;;;;;;1938029;72;21104;-82
2022/04/20 07:19:56;;;;;;;9.85;5.97;;;33.20;56.20;;;;;;1932763;74;21073;-80
2022/04/20 07:22:28;;;;;;;9.73;5.65;;;33.10;55.90;;;;;;1932328;74;21061;-81
2022/04/20 07:25:00;;;;;;;9.08;5.47;;;33.10;56.40;;;;;;1923321;73;21085;-81
2022/04/20 07:27:35;;;;;;;7.92;5.53;;;33.10;56.10;;;;;;1925732;74;21557;-81
2022/04/20 07:30:10;;;;;;;10.60;5.63;;;33.10;55.80;;;;;;1885408;75;21190;-80
2022/04/20 07:32:40;;;;;;;10.08;6.37;;;33.10;56.30;;;;;;1920400;74;21243;-83
2022/04/20 07:35:12;;;;;;;8.20;5.58;;;33.10;55.80;;;;;;1929371;73;21183;-81
2022/04/20 07:37:43;;;;;;;8.75;5.45;;;33.10;55.60;;;;;;1930245;74;21073;-81
2022/04/20 07:40:14;;;;;;;7.55;5.90;;;33.10;55.30;;;;;;1926996;72;21276;-82
2022/04/20 07:42:53;;;;;;;8.83;5.67;;;33.10;55.70;;;;;;1930337;74;21112;-81
2022/04/20 07:45:25;;;;;;;9.95;5.67;;;33.10;55.40;;;;;;1927561;72;21041;-81
2022/04/20 07:47:58;;;;;;;8.98;5.70;;;33.10;55.60;;;;;;1911374;75;21208;-82
2022/04/20 07:50:32;;;;;;;8.93;5.97;;;33.10;55.60;;;;;;1852039;77;21187;-82
2022/04/20 07:53:07;;;;;;;8.10;5.83;;;33.10;55.20;;;;;;1934957;74;21074;-80
2022/04/20 07:55:48;;;;;;;11.75;6.05;;;33.10;55.40;;;;;;1938565;72;21040;-83
2022/04/20 07:58:19;;;;;;;11.40;5.80;;;33.00;55.60;;;;;;1931027;72;21583;-82
2022/04/20 08:00:51;;;;;;;8.85;5.50;;;33.10;55.50;;;;;;1910981;72;21117;-83
2022/04/20 08:03:22;;;;;;;11.08;5.87;;;33.10;56.00;;;;;;1917249;74;21181;-82
2022/04/20 08:05:59;;;;;;;8.35;5.92;;;33.00;56.10;;;;;;1922722;72;21133;-82
2022/04/20 08:08:32;;;;;;;11.93;6.00;;;33.10;56.00;;;;;;1911958;74;21565;-81
2022/04/20 08:11:03;;;;;;;11.00;5.80;;;33.00;56.00;;;;;;1921260;74;21174;-81
2022/04/20 08:16:07;;;;;;;9.88;5.78;;;33.10;55.10;;;;;;1937341;74;21137;-82
2022/04/20 08:18:38;;;;;;;9.65;5.95;;;33.10;55.40;;;;;;1938004;74;21069;-81
2022/04/20 08:21:09;;;;;;;8.95;5.92;;;33.10;55.30;;;;;;1928656;74;21202;-82
2022/04/20 08:23:40;;;;;;;8.50;6.12;;;33.00;54.70;;;;;;1907397;74;21155;-81
2022/04/20 08:26:14;;;;;;;8.13;5.85;;;33.00;55.10;;;;;;1936793;74;21164;-83
2022/04/20 08:28:46;;;;;;;10.40;5.72;;;33.00;54.10;;;;;;1922698;74;21157;-83
2022/04/20 08:31:17;;;;;;;9.83;6.40;;;33.00;54.40;;;;;;1875734;76;21063;-80
2022/04/20 08:33:48;;;;;;;9.88;6.30;;;33.00;54.20;;;;;;1906162;74;21073;-82
2022/04/20 08:36:22;;;;;;;8.25;5.95;;;33.10;54.60;;;;;;1923775;74;21668;-82
2022/04/20 08:38:53;;;;;;;10.25;6.87;;;33.10;55.00;;;;;;1935149;74;21093;-82
2022/04/20 08:41:28;;;;;;;9.58;6.92;;;33.00;54.80;;;;;;1909324;74;21113;-81
2022/04/20 08:44:00;;;;;;;8.45;6.30;;;33.00;55.30;;;;;;1913041;74;21124;-81
2022/04/20 08:46:35;;;;;;;10.40;6.22;;;33.00;54.60;;;;;;1892927;74;21135;-84
2022/04/20 08:49:07;;;;;;;10.18;6.72;;;33.00;55.40;;;;;;1935863;73;21083;-81
2022/04/20 08:54:10;;;;;;;9.00;7.05;;;32.80;55.20;;;;;;1862308;76;21106;-82
2022/04/20 08:59:14;;;;;;;11.80;7.20;;;32.80;55.00;;;;;;1877741;75;21104;-83
2022/04/20 09:01:48;;;;;;;14.45;8.28;;;32.80;53.90;;;;;;1866316;76;21535;-83
2022/04/20 09:04:20;;;;;;;16.73;9.03;;;32.80;54.60;;;;;;1956282;72;21069;-81
2022/04/20 09:06:56;;;;;;;18.12;10.23;;;32.80;55.30;;;;;;1940728;73;21177;-82
2022/04/20 09:09:33;;;;;;;15.65;8.38;;;32.70;54.50;;;;;;1947714;72;21084;-81
2022/04/20 09:12:05;;;;;;;11.90;8.13;;;32.70;54.80;;;;;;1935072;72;21176;-82
2022/04/20 09:14:40;;;;;;;12.33;7.60;;;32.70;54.00;;;;;;1940141;73;21070;-81
2022/04/20 09:17:13;;;;;;;10.78;7.50;;;32.70;54.50;;;;;;1921788;74;21617;-82
2022/04/20 09:19:48;;;;;;;10.63;7.50;;;32.70;53.80;;;;;;1947515;72;21181;-81
2022/04/20 09:22:22;;;;;;;16.50;8.43;;;32.70;54.10;;;;;;1930420;73;21037;-83
2022/04/20 09:24:58;;;;;;;10.08;7.25;;;32.70;54.20;;;;;;1904249;74;21151;-81
2022/04/20 09:27:30;;;;;;;11.63;7.72;;;32.70;54.30;;;;;;1923243;72;21053;-82
2022/04/20 09:30:04;;;;;;;11.12;7.87;;;32.70;53.80;;;;;;1954790;73;21321;-81
2022/04/20 09:32:38;;;;;;;10.23;7.00;;;32.70;54.80;;;;;;1904266;74;21093;-81
2022/04/20 09:35:12;;;;;;;11.33;7.17;;;32.60;53.40;;;;;;1930464;74;21066;-81
2022/04/20 09:37:45;;;;;;;;;;;32.60;53.90;;;;;;1939778;74;22098;-79
2022/04/20 09:40:22;;;;;;;9.68;7.25;;;32.60;54.50;;;;;;1907004;74;20119;-83
2022/04/20 09:42:57;;;;;;;9.23;6.87;;;32.50;54.30;;;;;;1904449;74;21093;-82
2022/04/20 09:45:31;;;;;;;9.48;6.92;;;32.50;54.10;;;;;;1929586;74;21078;-83
2022/04/20 09:50:39;;;;;;;12.47;7.55;;;32.50;54.30;;;;;;1971602;72;21067;-82
2022/04/20 09:53:14;;;;;;;10.78;7.83;;;32.50;54.10;;;;;;1935547;73;21134;-82
2022/04/20 09:55:45;;;;;;;10.03;7.55;;;32.50;53.60;;;;;;1930273;74;21136;-81
2022/04/20 09:58:21;;;;;;;10.40;7.30;;;32.50;53.70;;;;;;1931025;74;21118;-82
2022/04/20 10:00:52;;;;;;;9.28;6.70;;;32.60;53.00;;;;;;1948170;73;21074;-80
2022/04/20 10:03:26;;;;;;;12.00;7.45;;;32.50;53.80;;;;;;1915554;74;21131;-82
2022/04/20 10:05:58;;;;;;;10.72;7.00;;;32.50;53.70;;;;;;1909651;74;21215;-84
2022/04/20 10:08:33;;;;;;;13.22;7.03;;;32.60;53.10;;;;;;1914585;74;21070;-82
2022/04/20 10:11:05;;;;;;;11.15;8.23;;;32.50;53.50;;;;;;1936182;74;21135;-81
2022/04/20 10:13:41;;;;;;;12.40;8.23;;;32.50;53.60;;;;;;1935903;73;21066;-81
2022/04/20 10:16:14;;;;;;;13.80;7.92;;;32.50;53.90;;;;;;1937819;74;21074;-82
2022/04/20 10:18:47;;;;;;;11.83;7.53;;;32.50;53.40;;;;;;1933619;74;21921;-81
2022/04/20 10:21:19;;;;;;;13.32;7.67;;;32.50;53.90;;;;;;1927135;74;21149;-82
2022/04/20 10:23:52;;;;;;;11.85;8.58;;;32.40;53.70;;;;;;1939828;72;21089;-83
2022/04/20 10:26:26;;;;;;;11.57;7.92;;;32.40;54.10;;;;;;1946509;74;21081;-82
2022/04/20 10:29:01;;;;;;;9.70;7.53;;;32.40;54.30;;;;;;1946531;74;21093;-82
2022/04/20 10:31:34;;;;;;;10.30;7.70;;;32.40;54.60;;;;;;1936640;73;21076;-81
2022/04/20 10:34:07;;;;;;;16.02;7.80;;;32.30;54.00;;;;;;1915326;73;21085;-80
2022/04/20 10:36:39;;;;;;;14.10;8.68;;;32.30;54.70;;;;;;1926961;74;21080;-81
2022/04/20 10:39:12;;;;;;;11.12;7.87;;;32.30;54.30;;;;;;1948006;72;21192;-82
2022/04/20 10:41:45;;;;;;;13.68;8.15;;;32.20;54.30;;;;;;1923300;72;21161;-81
2022/04/20 10:44:16;;;;;;;11.88;7.90;;;32.20;54.20;;;;;;1936984;74;21054;-82
2022/04/20 10:46:49;;;;;;;11.10;7.67;;;32.20;54.30;;;;;;1931287;74;21076;-82
2022/04/20 10:49:20;;;;;;;10.20;7.30;;;32.10;54.30;;;;;;1922922;74;21076;-82
2022/04/20 10:51:52;;;;;;;9.85;6.62;;;32.10;54.60;;;;;;1915661;72;21115;-81
2022/04/20 10:54:26;;;;;;;10.20;7.80;;;32.10;54.80;;;;;;1945096;72;21187;-82
2022/04/20 10:57:00;;;;;;;10.98;7.30;;;32.10;54.70;;;;;;1931665;73;21092;-81
2022/04/20 10:59:32;;;;;;;9.88;7.33;;;32.10;54.80;;;;;;1905318;75;21135;-82
2022/04/20 11:02:09;;;;;;;14.15;7.45;;;32.00;54.80;;;;;;1942622;72;21053;-79
2022/04/20 11:04:50;;;;;;;11.93;7.72;;;32.10;55.00;;;;;;1945710;73;21220;-82
2022/04/20 11:07:26;;;;;;;9.98;7.37;;;32.00;55.20;;;;;;1929286;72;21102;-81
2022/04/20 11:10:00;;;;;;;13.60;7.90;;;32.00;55.10;;;;;;1942952;74;21077;-81
2022/04/20 11:20:20;;;;;;;12.98;7.78;;;31.90;54.80;;;;;;1910279;75;21139;-80
2022/04/20 11:22:53;;;;;;;11.78;8.53;;;31.90;54.70;;;;;;1913032;73;21094;-80
2022/04/20 11:25:24;;;;;;;16.73;8.70;;;31.90;54.60;;;;;;1914078;74;21077;-81
2022/04/20 11:28:01;;;;;;;11.43;8.00;;;31.90;54.30;;;;;;1931771;74;21567;-81
2022/04/20 11:30:33;;;;;;;13.35;8.55;;;31.80;54.40;;;;;;1924043;74;21089;-82
2022/04/20 11:33:07;;;;;;;14.53;8.38;;;31.80;54.50;;;;;;1913273;74;21129;-82
2022/04/20 11:35:38;;;;;;;12.80;8.45;;;31.80;54.40;;;;;;1931220;73;21527;-82
2022/04/20 11:38:09;;;;;;;14.25;8.48;;;31.80;54.60;;;;;;1924755;73;21145;-83
2022/04/20 11:40:42;;;;;;;13.25;8.60;;;31.70;54.80;;;;;;1910944;74;21141;-80
2022/04/20 11:43:18;;;;;;;10.58;8.53;;;31.70;55.00;;;;;;1917660;73;21040;-81
2022/04/20 11:45:52;;;;;;;18.37;8.63;;;31.70;55.20;;;;;;1917117;74;21719;-81
2022/04/20 11:48:23;;;;;;;15.48;9.43;;;31.60;55.20;;;;;;1900587;75;21084;-82
2022/04/20 11:50:57;;;;;;;12.33;8.93;;;31.70;55.40;;;;;;1924114;74;21088;-81
2022/04/20 11:53:37;;;;;;;17.20;9.28;;;31.60;55.50;;;;;;1933953;73;21068;-81
2022/04/20 11:56:12;;;;;;;21.80;10.82;;;31.60;55.70;;;;;;1926415;74;21573;-83
2022/04/20 11:58:53;;;;;;;22.93;13.25;;;31.60;55.90;;;;;;1939459;73;21120;-80
2022/04/20 12:01:44;;;;;;;20.70;12.45;;;31.60;56.00;;;;;;1897540;74;21190;-86
2022/04/20 12:04:25;;;;;;;15.68;11.33;;;31.50;56.10;;;;;;1912224;74;21091;-84
2022/04/20 12:07:05;;;;;;;16.52;10.20;;;31.50;56.30;;;;;;1924077;73;21033;-83
2022/04/20 12:09:43;;;;;;;17.12;11.53;;;31.50;56.50;;;;;;1916122;74;21132;-83
2022/04/20 12:12:20;;;;;;;18.35;10.88;;;31.50;56.70;;;;;;1931105;73;21167;-84
2022/04/20 12:14:56;;;;;;;17.40;10.68;;;31.50;56.90;;;;;;1922483;74;21139;-83
2022/04/20 12:17:31;;;;;;;17.85;10.78;;;31.50;57.10;;;;;;1930323;74;21060;-84
2022/04/20 12:20:01;;;;;;;15.93;11.18;;;31.50;57.20;;;;;;1923566;73;21052;-82
2022/04/20 12:22:33;;;;;;;14.50;10.50;;;31.50;57.20;;;;;;1931441;74;21084;-85
2022/04/20 12:25:09;;;;;;;15.58;10.58;;;31.50;57.20;;;;;;1933523;74;21154;-83
2022/04/20 12:27:42;;;;;;;14.70;10.75;;;31.50;57.50;;;;;;1937469;74;21103;-84
2022/04/20 12:30:14;;;;;;;18.55;10.98;;;31.50;57.60;;;;;;1932202;73;21206;-85
2022/04/20 12:32:46;;;;;;;18.00;12.23;;;31.50;57.90;;;;;;1928950;73;21086;-84
2022/04/20 12:35:20;;;;;;;19.50;12.80;;;31.40;57.80;;;;;;1916056;73;21145;-86
2022/04/20 12:37:54;;;;;;;19.40;13.20;;;31.40;57.50;;;;;;1902209;74;21085;-85
2022/04/20 12:40:27;;;;;;;20.15;12.13;;;31.40;57.50;;;;;;1915693;74;21115;-85
2022/04/20 12:43:00;;;;;;;19.82;13.08;;;31.40;57.70;;;;;;1922210;73;21141;-85
2022/04/20 12:45:36;;;;;;;20.80;13.60;;;31.30;57.70;;;;;;1926603;74;21134;-85
2022/04/20 12:48:12;;;;;;;21.45;13.43;;;31.40;58.00;;;;;;1936456;73;21636;-85
2022/04/20 12:50:45;;;;;;;21.17;13.40;;;31.30;58.00;;;;;;1910165;74;21048;-84
2022/04/20 12:53:16;;;;;;;19.95;12.70;;;31.30;58.10;;;;;;1937344;74;21205;-83
2022/04/20 13:03:28;;;;;;;15.58;9.48;;;31.20;60.50;;;;;;1924106;74;21135;-84
2022/04/20 13:05:59;;;;;;;14.45;10.18;;;31.20;60.80;;;;;;1927724;73;21085;-82
2022/04/20 13:08:30;;;;;;;15.05;10.68;;;31.20;60.80;;;;;;1921857;74;21161;-83
2022/04/20 13:11:03;;;;;;;12.28;9.28;;;31.10;61.60;;;;;;1938704;74;21136;-83
2022/04/20 13:13:36;;;;;;;14.15;9.70;;;31.10;62.10;;;;;;1929376;74;21151;-84
2022/04/20 13:16:11;;;;;;;17.23;10.93;;;31.00;62.30;;;;;;1923543;74;21087;-85
2022/04/20 13:18:45;;;;;;;18.23;11.12;;;31.00;62.50;;;;;;1929821;74;21083;-83
2022/04/20 13:21:20;;;;;;;24.40;16.17;;;31.00;62.70;;;;;;1916857;74;21154;-85
2022/04/20 13:23:54;;;;;;;24.90;17.67;;;30.90;62.70;;;;;;1939179;74;21113;-84
2022/04/20 13:28:57;;;;;;;17.77;11.45;;;30.90;63.30;;;;;;1911033;74;21141;-83
2022/04/20 13:31:32;;;;;;;15.32;10.95;;;30.80;63.00;;;;;;1940531;74;21070;-84
2022/04/20 13:34:03;;;;;;;15.45;10.40;;;30.80;63.20;;;;;;1925474;74;21257;-83
2022/04/20 13:36:35;;;;;;;15.45;10.90;;;30.80;63.20;;;;;;1923230;74;21082;-84
2022/04/20 13:39:09;;;;;;;14.30;10.65;;;30.80;63.40;;;;;;1930125;73;21223;-84
2022/04/20 13:41:41;;;;;;;16.52;10.38;;;30.80;63.70;;;;;;1900013;75;21133;-83
2022/04/20 13:44:14;;;;;;;17.80;10.23;;;30.80;63.70;;;;;;1919191;73;21191;-83
2022/04/20 13:46:46;;;;;;;16.17;10.95;;;30.80;64.10;;;;;;1913850;73;21146;-81
2022/04/20 13:49:18;;;;;;;14.93;9.93;;;30.70;64.30;;;;;;1952140;72;21068;-84
2022/04/20 13:51:49;;;;;;;16.27;10.30;;;30.70;64.20;;;;;;1956307;72;21073;-84
2022/04/20 13:54:21;;;;;;;16.93;11.22;;;30.70;64.40;;;;;;1927053;74;21565;-85